sensor_id;sensor_type;location;lat;lon;timestamp;P1;durP1;ratioP1;P2;durP2;ratioP2
68212;SDS011;55035;47.792;8.724;2023-02-28T00:00:09;11.47;;;4.13;;
68212;SDS011;55035;47.792;8.724;2023-02-28T00:02:37;8.80;;;3.00;;
68212;SDS011;55035;47.792;8.724;2023-02-28T00:05:06;10.15;;;4.32;;
68212;SDS011;55035;47.792;8.724;2023-02-28T00:07:34;10.93;;;3.80;;
68212;SDS011;55035;47.792;8.724;2023-02-28T00:10:01;7.03;;;2.58;;
68212;SDS011;55035;47.792;8.724;2023-02-28T00:12:28;12.80;;;4.53;;
68212;SDS011;55035;47.792;8.724;2023-02-28T00:14:55;10.50;;;4.13;;
68212;SDS011;55035;47.792;8.724;2023-02-28T00:17:21;11.13;;;4.63;;
68212;SDS011;55035;47.792;8.724;2023-02-28T00:19:49;13.70;;;4.63;;
68212;SDS011;55035;47.792;8.724;2023-02-28T00:22:18;11.50;;;4.85;;
68212;SDS011;55035;47.792;8.724;2023-02-28T00:24:46;10.80;;;3.97;;
68212;SDS011;55035;47.792;8.724;2023-02-28T00:27:13;9.27;;;3.65;;
68212;SDS011;55035;47.792;8.724;2023-02-28T00:29:40;9.55;;;3.95;;
68212;SDS011;55035;47.792;8.724;2023-02-28T00:32:07;9.88;;;3.97;;
68212;SDS011;55035;47.792;8.724;2023-02-28T00:34:34;11.18;;;4.25;;
68212;SDS011;55035;47.792;8.724;2023-02-28T00:37:04;11.00;;;3.70;;
68212;SDS011;55035;47.792;8.724;2023-02-28T00:39:34;11.50;;;4.50;;
68212;SDS011;55035;47.792;8.724;2023-02-28T00:42:02;10.05;;;3.83;;
68212;SDS011;55035;47.792;8.724;2023-02-28T00:44:29;12.38;;;4.63;;
68212;SDS011;55035;47.792;8.724;2023-02-28T00:46:56;8.45;;;2.88;;
68212;SDS011;55035;47.792;8.724;2023-02-28T00:49:24;11.33;;;3.80;;
68212;SDS011;55035;47.792;8.724;2023-02-28T00:51:51;11.15;;;3.65;;
68212;SDS011;55035;47.792;8.724;2023-02-28T00:54:18;12.07;;;4.30;;
68212;SDS011;55035;47.792;8.724;2023-02-28T00:56:48;8.88;;;2.95;;
68212;SDS011;55035;47.792;8.724;2023-02-28T00:59:15;11.82;;;3.75;;
68212;SDS011;55035;47.792;8.724;2023-02-28T01:01:44;7.23;;;2.83;;
68212;SDS011;55035;47.792;8.724;2023-02-28T01:04:11;9.52;;;3.55;;
68212;SDS011;55035;47.792;8.724;2023-02-28T01:06:38;10.43;;;4.05;;
68212;SDS011;55035;47.792;8.724;2023-02-28T01:09:05;9.10;;;3.25;;
68212;SDS011;55035;47.792;8.724;2023-02-28T01:11:32;10.15;;;3.47;;
68212;SDS011;55035;47.792;8.724;2023-02-28T01:14:01;9.30;;;3.13;;
68212;SDS011;55035;47.792;8.724;2023-02-28T01:16:29;10.75;;;3.58;;
68212;SDS011;55035;47.792;8.724;2023-02-28T01:18:56;15.60;;;6.60;;
68212;SDS011;55035;47.792;8.724;2023-02-28T01:21:23;14.65;;;7.32;;
68212;SDS011;55035;47.792;8.724;2023-02-28T01:23:50;14.40;;;7.20;;
68212;SDS011;55035;47.792;8.724;2023-02-28T01:26:18;13.73;;;7.30;;
68212;SDS011;55035;47.792;8.724;2023-02-28T01:28:45;14.93;;;7.15;;
68212;SDS011;55035;47.792;8.724;2023-02-28T01:31:14;14.68;;;6.55;;
68212;SDS011;55035;47.792;8.724;2023-02-28T01:33:42;13.63;;;7.20;;
68212;SDS011;55035;47.792;8.724;2023-02-28T01:36:09;13.43;;;6.40;;
68212;SDS011;55035;47.792;8.724;2023-02-28T01:38:37;14.18;;;7.00;;
68212;SDS011;55035;47.792;8.724;2023-02-28T01:41:05;13.57;;;6.60;;
68212;SDS011;55035;47.792;8.724;2023-02-28T01:43:51;14.52;;;6.90;;
68212;SDS011;55035;47.792;8.724;2023-02-28T01:46:20;13.88;;;6.70;;
68212;SDS011;55035;47.792;8.724;2023-02-28T01:48:49;13.13;;;6.40;;
68212;SDS011;55035;47.792;8.724;2023-02-28T01:51:20;12.93;;;6.80;;
68212;SDS011;55035;47.792;8.724;2023-02-28T01:53:49;13.68;;;6.40;;
68212;SDS011;55035;47.792;8.724;2023-02-28T01:56:20;12.82;;;6.20;;
68212;SDS011;55035;47.792;8.724;2023-02-28T01:58:49;13.87;;;6.70;;
68212;SDS011;55035;47.792;8.724;2023-02-28T02:01:18;11.75;;;5.88;;
68212;SDS011;55035;47.792;8.724;2023-02-28T02:03:48;12.70;;;6.45;;
68212;SDS011;55035;47.792;8.724;2023-02-28T02:06:21;13.43;;;6.70;;
68212;SDS011;55035;47.792;8.724;2023-02-28T02:08:49;12.57;;;6.00;;
68212;SDS011;55035;47.792;8.724;2023-02-28T02:11:17;13.15;;;6.20;;
68212;SDS011;55035;47.792;8.724;2023-02-28T02:16:40;12.55;;;6.50;;
68212;SDS011;55035;47.792;8.724;2023-02-28T02:19:18;11.73;;;6.07;;
68212;SDS011;55035;47.792;8.724;2023-02-28T02:24:42;12.98;;;6.38;;
68212;SDS011;55035;47.792;8.724;2023-02-28T02:27:18;12.23;;;6.20;;
68212;SDS011;55035;47.792;8.724;2023-02-28T02:29:59;12.98;;;6.63;;
68212;SDS011;55035;47.792;8.724;2023-02-28T02:32:44;14.20;;;7.07;;
68212;SDS011;55035;47.792;8.724;2023-02-28T02:35:15;12.70;;;6.80;;
68212;SDS011;55035;47.792;8.724;2023-02-28T02:37:47;12.70;;;6.80;;
68212;SDS011;55035;47.792;8.724;2023-02-28T02:40:17;13.52;;;6.35;;
68212;SDS011;55035;47.792;8.724;2023-02-28T02:42:47;13.57;;;6.40;;
68212;SDS011;55035;47.792;8.724;2023-02-28T02:45:16;12.68;;;6.68;;
68212;SDS011;55035;47.792;8.724;2023-02-28T02:47:45;13.25;;;6.00;;
68212;SDS011;55035;47.792;8.724;2023-02-28T02:50:15;12.45;;;6.65;;
68212;SDS011;55035;47.792;8.724;2023-02-28T02:52:52;13.85;;;6.57;;
68212;SDS011;55035;47.792;8.724;2023-02-28T02:55:21;12.85;;;6.60;;
68212;SDS011;55035;47.792;8.724;2023-02-28T02:57:49;12.43;;;6.38;;
68212;SDS011;55035;47.792;8.724;2023-02-28T03:00:19;13.00;;;6.57;;
68212;SDS011;55035;47.792;8.724;2023-02-28T03:02:47;12.68;;;6.80;;
68212;SDS011;55035;47.792;8.724;2023-02-28T03:05:17;13.18;;;6.35;;
68212;SDS011;55035;47.792;8.724;2023-02-28T03:07:47;12.50;;;6.53;;
68212;SDS011;55035;47.792;8.724;2023-02-28T03:10:27;12.32;;;6.70;;
68212;SDS011;55035;47.792;8.724;2023-02-28T03:12:57;12.37;;;6.20;;
68212;SDS011;55035;47.792;8.724;2023-02-28T03:15:29;12.20;;;6.57;;
68212;SDS011;55035;47.792;8.724;2023-02-28T03:18:02;12.73;;;6.57;;
68212;SDS011;55035;47.792;8.724;2023-02-28T03:20:35;11.98;;;5.88;;
68212;SDS011;55035;47.792;8.724;2023-02-28T03:23:07;13.70;;;6.72;;
68212;SDS011;55035;47.792;8.724;2023-02-28T03:25:37;13.10;;;6.82;;
68212;SDS011;55035;47.792;8.724;2023-02-28T03:28:08;12.60;;;6.82;;
68212;SDS011;55035;47.792;8.724;2023-02-28T03:30:39;12.88;;;6.90;;
68212;SDS011;55035;47.792;8.724;2023-02-28T03:33:08;13.13;;;6.25;;
68212;SDS011;55035;47.792;8.724;2023-02-28T03:35:39;12.48;;;6.65;;
68212;SDS011;55035;47.792;8.724;2023-02-28T03:38:08;13.02;;;6.70;;
68212;SDS011;55035;47.792;8.724;2023-02-28T03:40:40;13.10;;;6.90;;
68212;SDS011;55035;47.792;8.724;2023-02-28T03:43:10;12.45;;;5.78;;
68212;SDS011;55035;47.792;8.724;2023-02-28T03:45:39;12.35;;;6.13;;
68212;SDS011;55035;47.792;8.724;2023-02-28T03:48:08;12.90;;;6.90;;
68212;SDS011;55035;47.792;8.724;2023-02-28T03:50:38;11.80;;;6.30;;
68212;SDS011;55035;47.792;8.724;2023-02-28T03:53:08;13.87;;;6.87;;
68212;SDS011;55035;47.792;8.724;2023-02-28T03:55:37;12.45;;;6.70;;
68212;SDS011;55035;47.792;8.724;2023-02-28T03:58:08;12.07;;;6.20;;
68212;SDS011;55035;47.792;8.724;2023-02-28T04:00:37;13.40;;;6.22;;
68212;SDS011;55035;47.792;8.724;2023-02-28T04:03:05;13.25;;;6.40;;
68212;SDS011;55035;47.792;8.724;2023-02-28T04:05:32;13.30;;;6.35;;
68212;SDS011;55035;47.792;8.724;2023-02-28T04:08:04;12.93;;;6.90;;
68212;SDS011;55035;47.792;8.724;2023-02-28T04:10:32;14.57;;;7.75;;
68212;SDS011;55035;47.792;8.724;2023-02-28T04:12:59;12.98;;;7.10;;
68212;SDS011;55035;47.792;8.724;2023-02-28T04:15:26;13.20;;;7.60;;
68212;SDS011;55035;47.792;8.724;2023-02-28T04:17:53;12.90;;;7.15;;
68212;SDS011;55035;47.792;8.724;2023-02-28T04:20:20;13.00;;;7.07;;
68212;SDS011;55035;47.792;8.724;2023-02-28T04:22:47;13.20;;;7.40;;
68212;SDS011;55035;47.792;8.724;2023-02-28T04:25:14;14.20;;;7.33;;
68212;SDS011;55035;47.792;8.724;2023-02-28T04:27:42;14.48;;;7.70;;
68212;SDS011;55035;47.792;8.724;2023-02-28T04:30:10;13.30;;;7.25;;
68212;SDS011;55035;47.792;8.724;2023-02-28T04:32:37;12.77;;;7.35;;
68212;SDS011;55035;47.792;8.724;2023-02-28T04:35:05;13.80;;;7.28;;
68212;SDS011;55035;47.792;8.724;2023-02-28T04:37:32;13.93;;;7.38;;
68212;SDS011;55035;47.792;8.724;2023-02-28T04:40:00;13.68;;;7.38;;
68212;SDS011;55035;47.792;8.724;2023-02-28T04:42:27;13.85;;;7.70;;
68212;SDS011;55035;47.792;8.724;2023-02-28T04:45:02;14.40;;;7.72;;
68212;SDS011;55035;47.792;8.724;2023-02-28T04:47:29;13.65;;;7.22;;
68212;SDS011;55035;47.792;8.724;2023-02-28T04:49:56;12.68;;;6.70;;
68212;SDS011;55035;47.792;8.724;2023-02-28T04:52:23;14.00;;;7.30;;
68212;SDS011;55035;47.792;8.724;2023-02-28T04:54:50;13.13;;;7.00;;
68212;SDS011;55035;47.792;8.724;2023-02-28T04:57:17;14.35;;;7.47;;
68212;SDS011;55035;47.792;8.724;2023-02-28T04:59:44;12.60;;;7.23;;
68212;SDS011;55035;47.792;8.724;2023-02-28T05:02:13;14.05;;;7.18;;
68212;SDS011;55035;47.792;8.724;2023-02-28T05:04:40;14.27;;;7.60;;
68212;SDS011;55035;47.792;8.724;2023-02-28T05:07:07;13.88;;;7.63;;
68212;SDS011;55035;47.792;8.724;2023-02-28T05:09:34;13.18;;;7.22;;
68212;SDS011;55035;47.792;8.724;2023-02-28T05:12:02;12.77;;;7.20;;
68212;SDS011;55035;47.792;8.724;2023-02-28T05:14:28;13.57;;;7.50;;
68212;SDS011;55035;47.792;8.724;2023-02-28T05:16:56;15.50;;;7.88;;
68212;SDS011;55035;47.792;8.724;2023-02-28T05:19:24;13.38;;;7.45;;
68212;SDS011;55035;47.792;8.724;2023-02-28T05:21:51;14.50;;;7.90;;
68212;SDS011;55035;47.792;8.724;2023-02-28T05:24:19;14.05;;;7.90;;
68212;SDS011;55035;47.792;8.724;2023-02-28T05:26:49;12.68;;;6.97;;
68212;SDS011;55035;47.792;8.724;2023-02-28T05:29:17;14.13;;;7.95;;
68212;SDS011;55035;47.792;8.724;2023-02-28T05:31:45;15.23;;;7.83;;
68212;SDS011;55035;47.792;8.724;2023-02-28T05:34:11;14.80;;;7.80;;
68212;SDS011;55035;47.792;8.724;2023-02-28T05:36:43;13.43;;;7.27;;
68212;SDS011;55035;47.792;8.724;2023-02-28T05:39:10;14.33;;;7.60;;
68212;SDS011;55035;47.792;8.724;2023-02-28T05:41:39;14.25;;;7.88;;
68212;SDS011;55035;47.792;8.724;2023-02-28T05:44:06;14.30;;;7.75;;
68212;SDS011;55035;47.792;8.724;2023-02-28T05:46:33;14.32;;;7.70;;
68212;SDS011;55035;47.792;8.724;2023-02-28T05:49:00;14.00;;;7.70;;
68212;SDS011;55035;47.792;8.724;2023-02-28T05:51:29;13.90;;;7.53;;
68212;SDS011;55035;47.792;8.724;2023-02-28T05:53:59;15.07;;;8.00;;
68212;SDS011;55035;47.792;8.724;2023-02-28T05:56:27;14.45;;;7.60;;
68212;SDS011;55035;47.792;8.724;2023-02-28T05:58:54;14.18;;;8.10;;
68212;SDS011;55035;47.792;8.724;2023-02-28T06:01:24;14.18;;;7.85;;
68212;SDS011;55035;47.792;8.724;2023-02-28T06:03:51;14.25;;;7.80;;
68212;SDS011;55035;47.792;8.724;2023-02-28T06:06:18;14.05;;;7.70;;
68212;SDS011;55035;47.792;8.724;2023-02-28T06:08:45;14.95;;;7.78;;
68212;SDS011;55035;47.792;8.724;2023-02-28T06:11:16;15.02;;;8.25;;
68212;SDS011;55035;47.792;8.724;2023-02-28T06:13:45;15.02;;;7.95;;
68212;SDS011;55035;47.792;8.724;2023-02-28T06:16:14;15.00;;;7.53;;
68212;SDS011;55035;47.792;8.724;2023-02-28T06:18:40;14.60;;;7.38;;
68212;SDS011;55035;47.792;8.724;2023-02-28T06:21:07;14.32;;;7.53;;
68212;SDS011;55035;47.792;8.724;2023-02-28T06:23:35;14.73;;;7.78;;
68212;SDS011;55035;47.792;8.724;2023-02-28T06:26:02;14.07;;;7.75;;
68212;SDS011;55035;47.792;8.724;2023-02-28T06:28:30;15.23;;;8.05;;
68212;SDS011;55035;47.792;8.724;2023-02-28T06:30:59;15.68;;;7.50;;
68212;SDS011;55035;47.792;8.724;2023-02-28T06:33:26;16.17;;;8.35;;
68212;SDS011;55035;47.792;8.724;2023-02-28T06:35:53;15.27;;;7.80;;
68212;SDS011;55035;47.792;8.724;2023-02-28T06:38:20;15.38;;;8.23;;
68212;SDS011;55035;47.792;8.724;2023-02-28T06:40:52;13.80;;;7.60;;
68212;SDS011;55035;47.792;8.724;2023-02-28T06:43:19;15.27;;;8.20;;
68212;SDS011;55035;47.792;8.724;2023-02-28T06:45:48;14.52;;;8.13;;
68212;SDS011;55035;47.792;8.724;2023-02-28T06:48:15;14.43;;;7.95;;
68212;SDS011;55035;47.792;8.724;2023-02-28T06:50:43;14.15;;;7.72;;
68212;SDS011;55035;47.792;8.724;2023-02-28T06:53:10;14.23;;;7.80;;
68212;SDS011;55035;47.792;8.724;2023-02-28T06:55:38;14.25;;;8.07;;
68212;SDS011;55035;47.792;8.724;2023-02-28T06:58:06;14.43;;;8.40;;
68212;SDS011;55035;47.792;8.724;2023-02-28T07:00:41;14.85;;;8.35;;
68212;SDS011;55035;47.792;8.724;2023-02-28T07:03:09;14.45;;;8.15;;
68212;SDS011;55035;47.792;8.724;2023-02-28T07:05:39;15.20;;;8.48;;
68212;SDS011;55035;47.792;8.724;2023-02-28T07:08:06;14.73;;;7.90;;
68212;SDS011;55035;47.792;8.724;2023-02-28T07:10:36;17.30;;;9.93;;
68212;SDS011;55035;47.792;8.724;2023-02-28T07:13:03;14.75;;;8.30;;
68212;SDS011;55035;47.792;8.724;2023-02-28T07:15:31;14.60;;;7.57;;
68212;SDS011;55035;47.792;8.724;2023-02-28T07:17:58;14.97;;;8.10;;
68212;SDS011;55035;47.792;8.724;2023-02-28T07:20:29;14.68;;;7.70;;
68212;SDS011;55035;47.792;8.724;2023-02-28T07:22:56;14.48;;;7.72;;
68212;SDS011;55035;47.792;8.724;2023-02-28T07:25:24;14.57;;;8.05;;
68212;SDS011;55035;47.792;8.724;2023-02-28T07:27:51;14.25;;;8.20;;
68212;SDS011;55035;47.792;8.724;2023-02-28T07:30:19;13.93;;;7.80;;
68212;SDS011;55035;47.792;8.724;2023-02-28T07:32:46;14.85;;;8.57;;
68212;SDS011;55035;47.792;8.724;2023-02-28T07:35:14;16.10;;;9.52;;
68212;SDS011;55035;47.792;8.724;2023-02-28T07:37:43;16.05;;;8.82;;
68212;SDS011;55035;47.792;8.724;2023-02-28T07:40:11;14.95;;;8.23;;
68212;SDS011;55035;47.792;8.724;2023-02-28T07:42:38;15.23;;;8.60;;
68212;SDS011;55035;47.792;8.724;2023-02-28T07:45:07;15.82;;;9.15;;
68212;SDS011;55035;47.792;8.724;2023-02-28T07:47:37;15.15;;;8.48;;
68212;SDS011;55035;47.792;8.724;2023-02-28T07:50:04;16.45;;;8.38;;
68212;SDS011;55035;47.792;8.724;2023-02-28T07:52:31;16.25;;;8.57;;
68212;SDS011;55035;47.792;8.724;2023-02-28T07:55:00;17.60;;;8.65;;
68212;SDS011;55035;47.792;8.724;2023-02-28T07:57:28;16.58;;;9.13;;
68212;SDS011;55035;47.792;8.724;2023-02-28T07:59:55;17.60;;;9.70;;
68212;SDS011;55035;47.792;8.724;2023-02-28T08:02:23;17.45;;;9.35;;
68212;SDS011;55035;47.792;8.724;2023-02-28T08:04:51;15.85;;;8.88;;
68212;SDS011;55035;47.792;8.724;2023-02-28T08:07:18;15.15;;;8.40;;
68212;SDS011;55035;47.792;8.724;2023-02-28T08:09:45;15.88;;;8.80;;
68212;SDS011;55035;47.792;8.724;2023-02-28T08:12:14;16.23;;;8.20;;
68212;SDS011;55035;47.792;8.724;2023-02-28T08:14:41;15.98;;;8.77;;
68212;SDS011;55035;47.792;8.724;2023-02-28T08:17:09;15.88;;;8.68;;
68212;SDS011;55035;47.792;8.724;2023-02-28T08:19:36;15.25;;;7.95;;
68212;SDS011;55035;47.792;8.724;2023-02-28T08:22:04;15.73;;;7.90;;
68212;SDS011;55035;47.792;8.724;2023-02-28T08:24:32;18.15;;;9.98;;
68212;SDS011;55035;47.792;8.724;2023-02-28T08:26:59;15.80;;;8.70;;
68212;SDS011;55035;47.792;8.724;2023-02-28T08:29:28;25.48;;;13.40;;
68212;SDS011;55035;47.792;8.724;2023-02-28T08:31:55;16.65;;;8.68;;
68212;SDS011;55035;47.792;8.724;2023-02-28T08:34:27;18.52;;;9.93;;
68212;SDS011;55035;47.792;8.724;2023-02-28T08:36:54;19.73;;;11.10;;
68212;SDS011;55035;47.792;8.724;2023-02-28T08:39:23;18.20;;;10.02;;
68212;SDS011;55035;47.792;8.724;2023-02-28T08:41:51;17.13;;;9.83;;
68212;SDS011;55035;47.792;8.724;2023-02-28T08:44:18;18.50;;;10.75;;
68212;SDS011;55035;47.792;8.724;2023-02-28T08:46:46;17.75;;;9.35;;
68212;SDS011;55035;47.792;8.724;2023-02-28T08:49:13;18.38;;;9.25;;
68212;SDS011;55035;47.792;8.724;2023-02-28T08:51:40;18.17;;;8.80;;
68212;SDS011;55035;47.792;8.724;2023-02-28T08:54:07;16.85;;;9.45;;
68212;SDS011;55035;47.792;8.724;2023-02-28T08:56:36;17.48;;;9.30;;
68212;SDS011;55035;47.792;8.724;2023-02-28T08:59:03;17.00;;;9.18;;
68212;SDS011;55035;47.792;8.724;2023-02-28T09:01:30;16.60;;;9.20;;
68212;SDS011;55035;47.792;8.724;2023-02-28T09:03:59;18.33;;;9.82;;
68212;SDS011;55035;47.792;8.724;2023-02-28T09:06:27;17.85;;;10.02;;
68212;SDS011;55035;47.792;8.724;2023-02-28T09:08:55;18.98;;;9.32;;
68212;SDS011;55035;47.792;8.724;2023-02-28T09:11:23;18.50;;;9.65;;
68212;SDS011;55035;47.792;8.724;2023-02-28T09:13:51;16.15;;;8.90;;
68212;SDS011;55035;47.792;8.724;2023-02-28T09:16:19;17.33;;;9.23;;
68212;SDS011;55035;47.792;8.724;2023-02-28T09:18:46;17.10;;;8.90;;
68212;SDS011;55035;47.792;8.724;2023-02-28T09:21:15;18.10;;;9.60;;
68212;SDS011;55035;47.792;8.724;2023-02-28T09:23:43;16.47;;;9.00;;
68212;SDS011;55035;47.792;8.724;2023-02-28T09:26:13;16.60;;;8.88;;
68212;SDS011;55035;47.792;8.724;2023-02-28T09:28:41;17.57;;;9.50;;
68212;SDS011;55035;47.792;8.724;2023-02-28T09:31:13;17.25;;;9.55;;
68212;SDS011;55035;47.792;8.724;2023-02-28T09:33:40;17.02;;;9.45;;
68212;SDS011;55035;47.792;8.724;2023-02-28T09:36:08;17.63;;;9.50;;
68212;SDS011;55035;47.792;8.724;2023-02-28T09:38:36;17.25;;;9.82;;
68212;SDS011;55035;47.792;8.724;2023-02-28T09:41:09;18.05;;;10.00;;
68212;SDS011;55035;47.792;8.724;2023-02-28T09:43:42;17.08;;;9.38;;
68212;SDS011;55035;47.792;8.724;2023-02-28T09:46:12;16.55;;;9.45;;
68212;SDS011;55035;47.792;8.724;2023-02-28T09:48:43;19.23;;;10.43;;
68212;SDS011;55035;47.792;8.724;2023-02-28T09:51:13;18.00;;;9.77;;
68212;SDS011;55035;47.792;8.724;2023-02-28T09:53:44;18.23;;;9.68;;
68212;SDS011;55035;47.792;8.724;2023-02-28T09:56:13;18.37;;;9.50;;
68212;SDS011;55035;47.792;8.724;2023-02-28T09:58:43;17.70;;;9.90;;
68212;SDS011;55035;47.792;8.724;2023-02-28T10:01:16;18.23;;;9.60;;
68212;SDS011;55035;47.792;8.724;2023-02-28T10:03:49;18.08;;;9.70;;
68212;SDS011;55035;47.792;8.724;2023-02-28T10:06:19;18.80;;;10.00;;
68212;SDS011;55035;47.792;8.724;2023-02-28T10:08:52;17.67;;;9.77;;
68212;SDS011;55035;47.792;8.724;2023-02-28T10:11:20;18.35;;;10.20;;
68212;SDS011;55035;47.792;8.724;2023-02-28T10:13:51;18.10;;;9.60;;
68212;SDS011;55035;47.792;8.724;2023-02-28T10:16:22;18.33;;;9.75;;
68212;SDS011;55035;47.792;8.724;2023-02-28T10:18:57;19.70;;;10.23;;
68212;SDS011;55035;47.792;8.724;2023-02-28T10:21:27;19.00;;;10.57;;
68212;SDS011;55035;47.792;8.724;2023-02-28T10:23:59;18.07;;;10.43;;
68212;SDS011;55035;47.792;8.724;2023-02-28T10:26:29;18.42;;;10.07;;
68212;SDS011;55035;47.792;8.724;2023-02-28T10:28:57;18.63;;;9.73;;
68212;SDS011;55035;47.792;8.724;2023-02-28T10:31:26;18.40;;;10.43;;
68212;SDS011;55035;47.792;8.724;2023-02-28T10:33:55;19.00;;;10.27;;
68212;SDS011;55035;47.792;8.724;2023-02-28T10:36:22;19.25;;;10.70;;
68212;SDS011;55035;47.792;8.724;2023-02-28T10:38:54;20.43;;;11.20;;
68212;SDS011;55035;47.792;8.724;2023-02-28T10:41:28;19.37;;;11.07;;
68212;SDS011;55035;47.792;8.724;2023-02-28T10:46:39;18.40;;;10.00;;
68212;SDS011;55035;47.792;8.724;2023-02-28T10:49:11;18.83;;;10.15;;
68212;SDS011;55035;47.792;8.724;2023-02-28T10:51:39;18.90;;;10.10;;
68212;SDS011;55035;47.792;8.724;2023-02-28T10:54:14;19.35;;;10.85;;
68212;SDS011;55035;47.792;8.724;2023-02-28T10:56:43;19.77;;;10.70;;
68212;SDS011;55035;47.792;8.724;2023-02-28T10:59:24;20.58;;;10.73;;
68212;SDS011;55035;47.792;8.724;2023-02-28T11:01:53;19.60;;;11.40;;
68212;SDS011;55035;47.792;8.724;2023-02-28T11:04:31;19.03;;;10.50;;
68212;SDS011;55035;47.792;8.724;2023-02-28T11:07:01;19.95;;;10.93;;
68212;SDS011;55035;47.792;8.724;2023-02-28T11:09:55;19.10;;;10.95;;
68212;SDS011;55035;47.792;8.724;2023-02-28T11:12:25;19.50;;;10.90;;
68212;SDS011;55035;47.792;8.724;2023-02-28T11:14:54;19.10;;;10.90;;
68212;SDS011;55035;47.792;8.724;2023-02-28T11:17:23;20.90;;;11.18;;
68212;SDS011;55035;47.792;8.724;2023-02-28T11:19:51;19.37;;;11.33;;
68212;SDS011;55035;47.792;8.724;2023-02-28T11:22:19;19.27;;;10.67;;
68212;SDS011;55035;47.792;8.724;2023-02-28T11:24:48;18.60;;;11.02;;
68212;SDS011;55035;47.792;8.724;2023-02-28T11:27:33;19.90;;;11.68;;
68212;SDS011;55035;47.792;8.724;2023-02-28T11:30:17;19.35;;;10.60;;
68212;SDS011;55035;47.792;8.724;2023-02-28T11:32:49;19.00;;;10.68;;
68212;SDS011;55035;47.792;8.724;2023-02-28T11:35:17;20.27;;;11.07;;
68212;SDS011;55035;47.792;8.724;2023-02-28T11:37:49;20.17;;;10.93;;
68212;SDS011;55035;47.792;8.724;2023-02-28T11:40:17;20.40;;;11.35;;
68212;SDS011;55035;47.792;8.724;2023-02-28T11:42:52;53.83;;;31.45;;
68212;SDS011;55035;47.792;8.724;2023-02-28T11:45:28;20.83;;;12.55;;
68212;SDS011;55035;47.792;8.724;2023-02-28T11:48:01;20.17;;;11.40;;
68212;SDS011;55035;47.792;8.724;2023-02-28T11:53:21;21.17;;;11.82;;
68212;SDS011;55035;47.792;8.724;2023-02-28T11:55:52;21.55;;;11.75;;
68212;SDS011;55035;47.792;8.724;2023-02-28T11:58:26;20.42;;;12.02;;
68212;SDS011;55035;47.792;8.724;2023-02-28T12:00:57;19.83;;;11.50;;
68212;SDS011;55035;47.792;8.724;2023-02-28T12:03:27;21.55;;;12.23;;
68212;SDS011;55035;47.792;8.724;2023-02-28T12:06:01;21.35;;;12.25;;
68212;SDS011;55035;47.792;8.724;2023-02-28T12:08:39;20.53;;;11.73;;
68212;SDS011;55035;47.792;8.724;2023-02-28T12:11:10;22.27;;;13.17;;
68212;SDS011;55035;47.792;8.724;2023-02-28T12:13:48;22.83;;;12.88;;
68212;SDS011;55035;47.792;8.724;2023-02-28T12:16:26;22.00;;;12.57;;
68212;SDS011;55035;47.792;8.724;2023-02-28T12:19:00;21.67;;;12.27;;
68212;SDS011;55035;47.792;8.724;2023-02-28T12:21:32;22.53;;;12.60;;
68212;SDS011;55035;47.792;8.724;2023-02-28T12:26:48;21.27;;;12.13;;
68212;SDS011;55035;47.792;8.724;2023-02-28T12:29:19;21.98;;;13.02;;
68212;SDS011;55035;47.792;8.724;2023-02-28T12:31:49;20.00;;;11.60;;
68212;SDS011;55035;47.792;8.724;2023-02-28T12:34:20;20.77;;;10.63;;
68212;SDS011;55035;47.792;8.724;2023-02-28T12:36:49;21.98;;;12.20;;
68212;SDS011;55035;47.792;8.724;2023-02-28T12:39:23;21.60;;;11.90;;
68212;SDS011;55035;47.792;8.724;2023-02-28T12:42:00;20.55;;;11.73;;
68212;SDS011;55035;47.792;8.724;2023-02-28T12:48:29;22.80;;;12.60;;
68212;SDS011;55035;47.792;8.724;2023-02-28T12:50:59;21.55;;;12.18;;
68212;SDS011;55035;47.792;8.724;2023-02-28T12:53:27;21.73;;;12.75;;
68212;SDS011;55035;47.792;8.724;2023-02-28T12:56:02;26.17;;;16.65;;
68212;SDS011;55035;47.792;8.724;2023-02-28T12:58:33;20.48;;;11.52;;
68212;SDS011;55035;47.792;8.724;2023-02-28T13:03:51;22.38;;;12.05;;
68212;SDS011;55035;47.792;8.724;2023-02-28T13:09:10;21.27;;;11.57;;
68212;SDS011;55035;47.792;8.724;2023-02-28T13:11:41;21.93;;;12.70;;
68212;SDS011;55035;47.792;8.724;2023-02-28T13:14:20;22.52;;;12.93;;
68212;SDS011;55035;47.792;8.724;2023-02-28T13:16:51;22.17;;;12.23;;
68212;SDS011;55035;47.792;8.724;2023-02-28T13:19:21;22.95;;;13.48;;
68212;SDS011;55035;47.792;8.724;2023-02-28T13:21:49;22.98;;;12.90;;
68212;SDS011;55035;47.792;8.724;2023-02-28T13:27:11;22.23;;;13.13;;
68212;SDS011;55035;47.792;8.724;2023-02-28T13:29:38;23.48;;;13.52;;
68212;SDS011;55035;47.792;8.724;2023-02-28T13:35:16;22.13;;;12.85;;
68212;SDS011;55035;47.792;8.724;2023-02-28T13:44:00;23.38;;;12.98;;
68212;SDS011;55035;47.792;8.724;2023-02-28T13:46:27;23.45;;;13.00;;
68212;SDS011;55035;47.792;8.724;2023-02-28T13:48:55;23.10;;;13.45;;
68212;SDS011;55035;47.792;8.724;2023-02-28T13:51:38;22.70;;;12.63;;
68212;SDS011;55035;47.792;8.724;2023-02-28T13:54:13;22.73;;;13.43;;
68212;SDS011;55035;47.792;8.724;2023-02-28T13:56:43;22.50;;;12.95;;
68212;SDS011;55035;47.792;8.724;2023-02-28T13:59:16;21.98;;;12.82;;
68212;SDS011;55035;47.792;8.724;2023-02-28T14:01:49;24.65;;;13.95;;
68212;SDS011;55035;47.792;8.724;2023-02-28T14:07:21;22.73;;;12.98;;
68212;SDS011;55035;47.792;8.724;2023-02-28T14:09:53;22.77;;;13.35;;
68212;SDS011;55035;47.792;8.724;2023-02-28T14:17:52;22.75;;;13.02;;
68212;SDS011;55035;47.792;8.724;2023-02-28T14:20:21;22.27;;;13.15;;
68212;SDS011;55035;47.792;8.724;2023-02-28T14:22:52;21.80;;;13.15;;
68212;SDS011;55035;47.792;8.724;2023-02-28T14:25:23;21.90;;;12.55;;
68212;SDS011;55035;47.792;8.724;2023-02-28T14:28:02;21.93;;;12.27;;
68212;SDS011;55035;47.792;8.724;2023-02-28T14:30:40;28.13;;;15.27;;
68212;SDS011;55035;47.792;8.724;2023-02-28T14:33:16;25.58;;;14.55;;
68212;SDS011;55035;47.792;8.724;2023-02-28T14:35:56;27.85;;;15.63;;
68212;SDS011;55035;47.792;8.724;2023-02-28T14:38:29;24.15;;;12.63;;
68212;SDS011;55035;47.792;8.724;2023-02-28T14:41:00;21.00;;;12.10;;
68212;SDS011;55035;47.792;8.724;2023-02-28T14:43:28;23.88;;;13.25;;
68212;SDS011;55035;47.792;8.724;2023-02-28T14:45:59;23.70;;;13.55;;
68212;SDS011;55035;47.792;8.724;2023-02-28T14:48:26;25.23;;;14.20;;
68212;SDS011;55035;47.792;8.724;2023-02-28T14:50:54;25.50;;;14.70;;
68212;SDS011;55035;47.792;8.724;2023-02-28T14:53:22;23.83;;;14.20;;
68212;SDS011;55035;47.792;8.724;2023-02-28T14:55:51;22.73;;;12.45;;
68212;SDS011;55035;47.792;8.724;2023-02-28T14:58:22;24.70;;;14.20;;
68212;SDS011;55035;47.792;8.724;2023-02-28T15:00:50;26.67;;;15.13;;
68212;SDS011;55035;47.792;8.724;2023-02-28T15:03:19;24.70;;;14.20;;
68212;SDS011;55035;47.792;8.724;2023-02-28T15:05:53;24.77;;;14.73;;
68212;SDS011;55035;47.792;8.724;2023-02-28T15:08:22;24.03;;;14.03;;
68212;SDS011;55035;47.792;8.724;2023-02-28T15:10:53;21.10;;;12.30;;
68212;SDS011;55035;47.792;8.724;2023-02-28T15:13:22;21.33;;;12.30;;
68212;SDS011;55035;47.792;8.724;2023-02-28T15:15:51;20.80;;;12.45;;
68212;SDS011;55035;47.792;8.724;2023-02-28T15:18:24;19.05;;;11.23;;
68212;SDS011;55035;47.792;8.724;2023-02-28T15:20:53;19.75;;;12.00;;
68212;SDS011;55035;47.792;8.724;2023-02-28T15:23:22;20.73;;;12.20;;
68212;SDS011;55035;47.792;8.724;2023-02-28T15:25:49;19.85;;;12.10;;
68212;SDS011;55035;47.792;8.724;2023-02-28T15:28:20;19.30;;;11.60;;